Time;durP1;ratioP1;P1;durP2;ratioP2;P2;SDS_P1;SDS_P2;PMS_P1;PMS_P2;Temp;Humidity;BMP_temperature;BMP_pressure;BME280_temperature;BME280_humidity;BME280_pressure;Samples;Min_cycle;Max_cycle;Signal;HPM_P1;HPM_P2
2022/03/28 00:01:31;;;;;;;3.33;2.75;;;6.00;99.90;;;;;;5055467;28;20052;-74
2022/03/28 00:03:57;;;;;;;3.35;2.63;;;6.00;99.90;;;;;;5056036;28;20079;-73
2022/03/28 00:06:22;;;;;;;4.35;2.58;;;6.00;99.90;;;;;;5051206;28;20394;-74
2022/03/28 00:08:49;;;;;;;2.78;2.30;;;6.00;99.90;;;;;;5054007;28;20048;-74
2022/03/28 00:11:16;;;;;;;2.65;2.15;;;6.00;99.90;;;;;;5055091;28;20045;-74
2022/03/28 00:13:42;;;;;;;2.05;1.52;;;6.00;99.90;;;;;;5054722;28;20048;-73
2022/03/28 00:16:08;;;;;;;;;;;6.00;99.90;;;;;;5056105;28;20466;-74
2022/03/28 00:18:34;;;;;;;1.75;1.65;;;6.00;99.90;;;;;;5054522;28;19974;-73
2022/03/28 00:21:00;;;;;;;2.80;2.13;;;6.10;99.90;;;;;;5055506;28;20063;-77
2022/03/28 00:23:25;;;;;;;1.88;1.65;;;6.00;99.90;;;;;;5052969;28;20522;-73
2022/03/28 00:25:52;;;;;;;2.38;2.17;;;5.90;99.90;;;;;;5051453;28;20060;-73
2022/03/28 00:28:18;;;;;;;2.33;1.45;;;6.00;99.90;;;;;;5052537;28;20040;-76
2022/03/28 00:30:44;;;;;;;1.58;1.48;;;5.90;99.90;;;;;;5022084;28;20036;-73
2022/03/28 00:33:10;;;;;;;1.98;1.83;;;5.90;99.90;;;;;;5047327;28;20101;-75
2022/03/28 00:35:36;;;;;;;2.22;2.00;;;5.90;99.90;;;;;;5046651;28;20036;-75
2022/03/28 00:38:05;;;;;;;2.08;1.88;;;5.80;99.90;;;;;;5030961;28;20123;-74
2022/03/28 00:40:32;;;;;;;1.67;1.58;;;5.80;99.90;;;;;;5070779;28;20044;-72
2022/03/28 00:42:58;;;;;;;2.17;1.50;;;5.80;99.90;;;;;;5054619;28;20094;-74
2022/03/28 00:45:25;;;;;;;1.25;1.15;;;5.80;99.90;;;;;;5057598;28;20040;-76
2022/03/28 00:47:50;;;;;;;;;;;5.80;99.90;;;;;;5054288;28;20371;-74
2022/03/28 00:50:16;;;;;;;1.83;1.65;;;5.80;99.90;;;;;;5058222;28;19969;-76
2022/03/28 00:52:42;;;;;;;1.42;1.33;;;5.90;99.90;;;;;;5052897;28;20097;-75
2022/03/28 00:55:08;;;;;;;2.05;1.15;;;5.70;99.90;;;;;;5060168;28;20128;-74
2022/03/28 00:57:34;;;;;;;3.28;2.83;;;5.70;99.90;;;;;;5054021;28;20048;-73
2022/03/28 01:00:02;;;;;;;2.22;1.90;;;5.80;99.90;;;;;;5051363;28;20513;-75
2022/03/28 01:02:28;;;;;;;0.90;0.90;;;5.80;99.90;;;;;;5043536;28;20036;-73
2022/03/28 01:04:54;;;;;;;;;;;5.80;99.90;;;;;;5046127;28;20040;-73
2022/03/28 01:07:21;;;;;;;1.48;1.38;;;5.90;99.90;;;;;;5070249;28;19939;-76
2022/03/28 01:09:47;;;;;;;1.80;1.70;;;5.90;99.90;;;;;;5053456;28;20040;-75
2022/03/28 01:12:13;;;;;;;1.98;1.88;;;5.80;99.90;;;;;;5038484;28;20058;-73
2022/03/28 01:14:41;;;;;;;1.23;1.15;;;5.90;99.90;;;;;;5037758;28;20040;-72
2022/03/28 01:19:52;;;;;;;2.85;1.73;;;5.90;99.90;;;;;;5047056;28;20068;-72
2022/03/28 01:22:18;;;;;;;1.55;1.30;;;6.00;99.90;;;;;;5045096;28;20540;-76
2022/03/28 01:24:45;;;;;;;2.20;1.83;;;5.90;99.90;;;;;;5053196;28;20032;-75
2022/03/28 01:27:12;;;;;;;1.23;1.13;;;6.00;99.90;;;;;;5052691;28;20049;-74
2022/03/28 01:29:38;;;;;;;1.02;1.02;;;5.90;99.90;;;;;;5048700;28;20075;-75
2022/03/28 01:32:04;;;;;;;3.00;1.88;;;5.90;99.90;;;;;;5046158;28;20072;-76
2022/03/28 01:34:30;;;;;;;2.78;2.20;;;5.90;99.90;;;;;;5057511;28;20052;-73
2022/03/28 01:36:55;;;;;;;1.75;1.65;;;5.90;99.90;;;;;;5046845;28;20051;-74
2022/03/28 01:39:21;;;;;;;1.60;1.48;;;5.90;99.90;;;;;;5056886;28;20044;-73
2022/03/28 01:41:47;;;;;;;1.85;1.52;;;5.90;99.90;;;;;;5047959;28;20048;-75
2022/03/28 01:44:13;;;;;;;1.20;1.10;;;5.80;99.90;;;;;;5056762;28;20056;-76
2022/03/28 01:46:44;;;;;;;;;;;5.80;99.90;;;;;;5052956;28;20567;-76
2022/03/28 01:49:10;;;;;;;1.10;1.00;;;5.80;99.90;;;;;;5060092;28;20003;-75
2022/03/28 01:51:36;;;;;;;2.28;1.65;;;5.80;99.90;;;;;;5052090;28;20067;-75
2022/03/28 01:54:02;;;;;;;4.07;2.15;;;5.80;99.90;;;;;;5052901;28;20041;-76
2022/03/28 01:56:28;;;;;;;;;;;5.70;99.90;;;;;;5049913;28;20049;-76
2022/03/28 01:58:54;;;;;;;1.90;1.73;;;5.70;99.90;;;;;;5048233;28;19927;-73
2022/03/28 02:01:19;;;;;;;2.00;1.77;;;5.70;99.90;;;;;;5049605;28;20041;-73
2022/03/28 02:03:45;;;;;;;4.45;1.45;;;5.70;99.90;;;;;;5030364;28;20047;-74
2022/03/28 02:06:11;;;;;;;2.15;1.05;;;5.50;99.90;;;;;;5041253;28;20056;-76
2022/03/28 02:08:37;;;;;;;2.15;1.70;;;5.40;99.90;;;;;;5051426;28;20604;-73
2022/03/28 02:11:02;;;;;;;3.25;1.90;;;5.40;99.90;;;;;;5036976;28;20067;-73
2022/03/28 02:13:28;;;;;;;3.33;1.58;;;5.40;99.90;;;;;;5049095;28;20500;-75
2022/03/28 02:15:54;;;;;;;1.83;1.65;;;5.40;99.90;;;;;;5036065;28;20165;-75
2022/03/28 02:18:19;;;;;;;1.35;1.25;;;5.40;99.90;;;;;;5045454;28;20415;-75
2022/03/28 02:20:45;;;;;;;2.05;1.90;;;5.40;99.90;;;;;;5052291;28;20513;-75
2022/03/28 02:23:11;;;;;;;2.05;1.48;;;5.40;99.90;;;;;;5051815;28;20059;-76
2022/03/28 02:25:39;;;;;;;3.28;2.83;;;5.40;99.90;;;;;;5045438;28;20481;-74
2022/03/28 02:28:05;;;;;;;2.05;1.95;;;5.50;99.90;;;;;;5052966;28;20048;-75
2022/03/28 02:30:31;;;;;;;1.60;1.50;;;5.40;99.90;;;;;;5057587;28;20458;-74
2022/03/28 02:32:58;;;;;;;3.33;2.70;;;5.50;99.90;;;;;;5051791;28;20044;-76
2022/03/28 02:35:24;;;;;;;1.75;1.65;;;5.40;99.90;;;;;;5052318;28;20436;-72
2022/03/28 02:37:50;;;;;;;1.95;1.83;;;5.40;99.90;;;;;;5051548;28;20090;-72
2022/03/28 02:40:17;;;;;;;1.58;1.48;;;5.30;99.90;;;;;;5056639;28;20047;-75
2022/03/28 02:42:43;;;;;;;3.53;1.73;;;5.30;99.90;;;;;;5060838;28;20046;-73
2022/03/28 02:45:09;;;;;;;2.53;1.35;;;5.30;99.90;;;;;;5054930;28;20074;-74
2022/03/28 02:47:35;;;;;;;3.80;1.92;;;5.30;99.90;;;;;;5056249;28;20040;-72
2022/03/28 02:50:02;;;;;;;1.50;1.40;;;5.30;99.90;;;;;;5050412;28;20044;-73
2022/03/28 02:52:27;;;;;;;2.22;1.52;;;5.30;99.90;;;;;;5051146;28;20049;-76
2022/03/28 02:54:53;;;;;;;1.48;1.38;;;5.30;99.90;;;;;;5052153;28;20048;-73
2022/03/28 02:57:19;;;;;;;0.95;0.93;;;5.30;99.90;;;;;;5052181;28;20045;-74
2022/03/28 02:59:45;;;;;;;1.52;1.33;;;5.20;99.90;;;;;;5045774;28;20049;-75
2022/03/28 03:02:10;;;;;;;1.00;0.88;;;5.20;99.90;;;;;;5052735;28;20063;-74
2022/03/28 03:04:36;;;;;;;1.85;1.67;;;5.20;99.90;;;;;;5037308;28;20056;-76
2022/03/28 03:07:02;;;;;;;1.40;1.30;;;5.40;99.90;;;;;;5045112;28;20044;-73
2022/03/28 03:09:28;;;;;;;3.20;0.88;;;5.10;99.90;;;;;;5057200;28;20048;-73
2022/03/28 03:11:54;;;;;;;2.58;2.38;;;4.90;99.90;;;;;;5059417;28;20107;-75
2022/03/28 03:14:20;;;;;;;2.05;1.90;;;5.10;99.90;;;;;;5047373;28;20068;-74
2022/03/28 03:16:46;;;;;;;1.48;1.38;;;5.10;99.90;;;;;;5063691;28;20036;-75
2022/03/28 03:19:11;;;;;;;1.67;1.42;;;5.00;99.90;;;;;;5055674;28;20493;-75
2022/03/28 03:21:38;;;;;;;4.65;2.15;;;5.20;99.90;;;;;;5050785;28;20478;-75
2022/03/28 03:24:05;;;;;;;3.08;1.65;;;5.10;99.90;;;;;;5059934;28;20542;-74
2022/03/28 03:26:31;;;;;;;2.88;1.90;;;5.00;99.90;;;;;;5068810;28;20048;-73
2022/03/28 03:28:58;;;;;;;1.90;1.23;;;5.00;99.90;;;;;;5047819;28;20054;-73
2022/03/28 03:31:25;;;;;;;2.72;1.67;;;5.00;99.90;;;;;;5059981;28;20045;-75
2022/03/28 03:33:51;;;;;;;2.25;1.55;;;5.00;99.90;;;;;;5056059;28;20063;-76
2022/03/28 03:36:16;;;;;;;1.92;1.10;;;4.90;99.90;;;;;;5055511;28;20055;-74
2022/03/28 03:38:42;;;;;;;1.10;0.95;;;4.90;99.90;;;;;;5065582;28;20062;-75
2022/03/28 03:41:08;;;;;;;1.13;0.85;;;4.90;99.90;;;;;;5055228;28;20072;-73
2022/03/28 03:43:34;;;;;;;2.25;1.02;;;4.90;99.90;;;;;;5059817;28;20063;-77
2022/03/28 03:45:59;;;;;;;0.82;0.82;;;4.80;99.90;;;;;;5067386;28;20048;-76
2022/03/28 03:48:27;;;;;;;1.10;1.00;;;4.80;99.90;;;;;;5056482;28;20396;-74
2022/03/28 03:50:53;;;;;;;1.08;1.05;;;4.70;99.90;;;;;;5055449;28;20052;-71
2022/03/28 03:53:20;;;;;;;0.70;0.70;;;4.70;99.90;;;;;;5057879;28;20040;-72
2022/03/28 03:55:46;;;;;;;;;;;4.70;99.90;;;;;;5073911;28;20120;-75
2022/03/28 03:58:11;;;;;;;1.00;1.00;;;4.70;99.90;;;;;;5051567;28;19974;-74
2022/03/28 04:00:37;;;;;;;1.65;0.85;;;4.70;99.90;;;;;;5052474;28;20041;-77
2022/03/28 04:03:03;;;;;;;0.90;0.88;;;4.70;99.90;;;;;;5056958;28;20055;-74
2022/03/28 04:05:30;;;;;;;1.13;1.02;;;4.70;99.90;;;;;;5058700;28;20045;-75
2022/03/28 04:07:56;;;;;;;1.35;1.25;;;4.70;99.90;;;;;;5058906;28;20052;-74
2022/03/28 04:10:22;;;;;;;2.63;1.40;;;4.70;99.90;;;;;;5037788;28;20049;-75
2022/03/28 04:12:48;;;;;;;1.95;1.00;;;4.70;99.90;;;;;;5051574;28;20036;-75
2022/03/28 04:15:14;;;;;;;;;;;4.80;99.90;;;;;;5055639;28;20040;-75
2022/03/28 04:17:41;;;;;;;0.90;0.90;;;4.80;99.90;;;;;;5048302;28;20003;-75
2022/03/28 04:20:08;;;;;;;2.30;1.35;;;4.80;99.90;;;;;;5037492;28;20037;-75
2022/03/28 04:22:34;;;;;;;0.77;0.77;;;4.80;99.90;;;;;;5057922;28;20040;-76
2022/03/28 04:24:59;;;;;;;2.20;1.35;;;4.80;99.90;;;;;;5051757;28;20049;-74
2022/03/28 04:27:25;;;;;;;1.05;0.90;;;4.90;99.90;;;;;;5053015;28;20500;-73
2022/03/28 04:29:51;;;;;;;0.70;0.70;;;4.90;99.90;;;;;;5038352;28;20044;-74
2022/03/28 04:32:17;;;;;;;0.90;0.90;;;4.90;99.90;;;;;;5058513;28;20040;-76
2022/03/28 04:34:42;;;;;;;0.90;0.90;;;4.90;99.90;;;;;;5057804;28;20195;-73
2022/03/28 04:37:08;;;;;;;0.98;0.98;;;4.90;99.90;;;;;;5033471;28;20052;-75
2022/03/28 04:39:33;;;;;;;0.80;0.80;;;4.90;99.90;;;;;;5050704;28;21716;-75
2022/03/28 04:41:59;;;;;;;0.70;0.70;;;4.90;99.90;;;;;;5049651;28;20048;-74
2022/03/28 04:44:25;;;;;;;3.67;1.15;;;4.90;99.90;;;;;;5050337;28;20039;-76
2022/03/28 04:46:51;;;;;;;1.58;1.48;;;4.90;99.90;;;;;;5028214;28;20090;-77
2022/03/28 04:49:17;;;;;;;1.52;1.25;;;4.90;99.90;;;;;;5034184;28;20037;-77
2022/03/28 04:51:43;;;;;;;1.30;1.17;;;4.90;99.90;;;;;;5052873;28;20044;-75
2022/03/28 04:54:09;;;;;;;2.30;2.08;;;4.80;99.90;;;;;;5022317;28;20045;-75
2022/03/28 04:56:35;;;;;;;1.52;1.42;;;4.80;99.90;;;;;;5041433;28;20038;-74
2022/03/28 04:59:02;;;;;;;2.17;1.70;;;4.80;99.90;;;;;;5044542;28;20091;-76
2022/03/28 05:01:28;;;;;;;1.55;1.45;;;4.80;99.90;;;;;;5055074;28;20120;-79
2022/03/28 05:03:54;;;;;;;1.52;1.42;;;4.80;99.90;;;;;;5049278;28;20044;-73
2022/03/28 05:06:19;;;;;;;1.90;1.42;;;4.80;99.90;;;;;;5025600;28;20086;-73
2022/03/28 05:08:45;;;;;;;4.82;2.42;;;4.90;99.90;;;;;;5053091;28;20079;-71
2022/03/28 05:11:12;;;;;;;1.95;1.60;;;4.90;99.90;;;;;;5052041;28;20386;-74
2022/03/28 05:13:37;;;;;;;2.83;1.33;;;4.90;99.90;;;;;;5052504;28;20055;-76
2022/03/28 05:16:03;;;;;;;1.60;1.50;;;4.80;99.90;;;;;;5056202;28;20040;-74
2022/03/28 05:18:29;;;;;;;2.00;1.90;;;4.90;99.90;;;;;;5045127;28;20072;-77
2022/03/28 05:20:55;;;;;;;2.05;1.42;;;4.90;99.90;;;;;;5055633;28;20667;-75
2022/03/28 05:23:20;;;;;;;2.47;2.03;;;4.90;99.90;;;;;;5053094;28;20052;-76
2022/03/28 05:25:46;;;;;;;2.05;1.85;;;4.90;99.90;;;;;;5049608;28;20079;-75
2022/03/28 05:28:12;;;;;;;1.83;1.67;;;5.00;99.90;;;;;;5049337;28;20037;-74
2022/03/28 05:30:38;;;;;;;3.20;1.92;;;5.00;99.90;;;;;;5050707;28;20382;-76
2022/03/28 05:33:03;;;;;;;2.17;1.73;;;5.00;99.90;;;;;;5048365;28;20163;-73
2022/03/28 05:35:29;;;;;;;2.10;1.63;;;5.00;99.90;;;;;;5052098;28;20119;-73
2022/03/28 05:37:55;;;;;;;4.38;2.17;;;5.00;99.90;;;;;;5053049;28;20048;-74
2022/03/28 05:40:21;;;;;;;1.40;1.30;;;4.90;99.90;;;;;;5050353;28;20048;-77
2022/03/28 05:42:47;;;;;;;2.33;2.13;;;4.90;99.90;;;;;;5052724;28;20048;-75
2022/03/28 05:45:13;;;;;;;6.68;2.13;;;4.90;99.90;;;;;;5047593;28;20044;-76
2022/03/28 05:47:39;;;;;;;2.40;2.20;;;4.90;99.90;;;;;;5047105;28;20060;-73
2022/03/28 05:50:05;;;;;;;;;;;4.90;99.90;;;;;;5065485;28;20470;-76
2022/03/28 05:52:30;;;;;;;1.73;1.63;;;4.90;99.90;;;;;;5036673;28;19923;-74
2022/03/28 05:54:56;;;;;;;2.72;1.63;;;4.90;99.90;;;;;;5031358;28;20144;-75
2022/03/28 05:57:22;;;;;;;3.40;1.70;;;4.90;99.90;;;;;;5049456;28;20494;-76
2022/03/28 05:59:48;;;;;;;6.00;1.92;;;4.90;99.90;;;;;;5047256;28;20136;-74
2022/03/28 06:02:14;;;;;;;1.90;1.67;;;4.90;99.90;;;;;;5050333;28;20434;-75
2022/03/28 06:04:39;;;;;;;3.08;2.22;;;5.00;99.90;;;;;;5053797;28;20109;-74
2022/03/28 06:07:05;;;;;;;1.52;1.42;;;5.00;99.90;;;;;;5032804;28;20127;-74
2022/03/28 06:09:31;;;;;;;2.63;1.67;;;5.00;99.90;;;;;;5033075;28;20052;-74
2022/03/28 06:11:57;;;;;;;1.75;1.65;;;5.00;99.90;;;;;;5048957;28;20459;-72
2022/03/28 06:14:22;;;;;;;2.45;2.25;;;5.10;99.90;;;;;;5056315;28;20036;-74
2022/03/28 06:16:48;;;;;;;1.85;1.65;;;5.10;99.90;;;;;;5048285;28;20033;-75
2022/03/28 06:19:14;;;;;;;1.73;1.50;;;5.20;99.90;;;;;;5049011;28;20041;-77
2022/03/28 06:21:40;;;;;;;1.77;1.40;;;5.20;99.90;;;;;;5048020;28;20076;-76
2022/03/28 06:24:07;;;;;;;1.83;1.45;;;5.20;99.90;;;;;;5035115;28;20127;-78
2022/03/28 06:26:33;;;;;;;3.65;1.77;;;5.30;99.90;;;;;;5049352;28;20053;-77
2022/03/28 06:28:58;;;;;;;1.67;1.58;;;5.30;99.90;;;;;;5049370;28;20045;-77
2022/03/28 06:31:24;;;;;;;2.10;1.90;;;5.40;99.90;;;;;;5048000;28;20068;-77
2022/03/28 06:33:51;;;;;;;3.47;2.22;;;5.40;99.90;;;;;;5033332;28;20045;-75
2022/03/28 06:36:17;;;;;;;1.92;1.73;;;5.40;99.90;;;;;;5045202;28;20410;-77
2022/03/28 06:38:43;;;;;;;;;;;5.40;99.90;;;;;;5055589;28;20107;-77
2022/03/28 06:41:09;;;;;;;1.88;1.77;;;5.40;99.90;;;;;;5048243;28;19929;-78
2022/03/28 06:43:35;;;;;;;2.47;1.80;;;5.40;99.90;;;;;;5033508;28;20462;-77
2022/03/28 06:46:00;;;;;;;2.85;2.13;;;5.50;99.90;;;;;;5063066;28;20048;-79
2022/03/28 06:48:27;;;;;;;3.78;3.47;;;5.50;99.90;;;;;;5036534;28;20048;-73
2022/03/28 06:50:52;;;;;;;3.33;3.03;;;5.60;99.90;;;;;;5043668;28;20049;-78
2022/03/28 06:53:18;;;;;;;5.15;2.03;;;5.60;99.90;;;;;;5028094;28;20155;-77
2022/03/28 06:55:44;;;;;;;2.72;2.45;;;5.70;99.90;;;;;;5052904;28;20064;-76
2022/03/28 06:58:11;;;;;;;2.97;2.60;;;5.70;99.90;;;;;;5028903;28;20060;-76
2022/03/28 07:00:37;;;;;;;4.47;2.83;;;5.70;99.90;;;;;;5046689;28;20059;-73
2022/03/28 07:03:02;;;;;;;2.15;1.80;;;5.80;99.90;;;;;;5045701;28;20076;-75
2022/03/28 07:05:28;;;;;;;2.40;2.00;;;5.90;99.90;;;;;;5049852;28;20083;-76
2022/03/28 07:07:55;;;;;;;9.60;3.67;;;5.90;99.90;;;;;;5049629;28;20544;-80
2022/03/28 07:10:22;;;;;;;1.88;1.73;;;5.90;99.90;;;;;;5022294;28;20071;-79
2022/03/28 07:12:48;;;;;;;2.92;2.20;;;6.00;99.90;;;;;;5051779;28;20037;-80
2022/03/28 07:15:14;;;;;;;3.13;2.80;;;6.00;99.90;;;;;;5055565;28;20359;-79
2022/03/28 07:17:52;;;;;;;7.07;2.60;;;6.10;99.90;;;;;;5064694;28;20052;-79
2022/03/28 07:20:23;;;;;;;3.03;1.90;;;6.10;99.90;;;;;;5055712;28;20120;-80
2022/03/28 07:22:49;;;;;;;9.68;3.25;;;6.20;99.90;;;;;;5053510;28;20160;-74
2022/03/28 07:25:14;;;;;;;;;;;6.20;99.90;;;;;;5059040;28;20039;-73
2022/03/28 07:27:41;;;;;;;5.07;3.35;;;6.30;99.90;;;;;;5061184;28;20281;-74
2022/03/28 07:30:08;;;;;;;4.75;3.05;;;6.30;99.90;;;;;;5040998;28;20041;-75
2022/03/28 07:32:34;;;;;;;3.97;3.50;;;6.30;99.90;;;;;;5063721;28;20510;-73
2022/03/28 07:35:01;;;;;;;6.47;4.13;;;6.40;99.90;;;;;;5052085;28;20387;-79
2022/03/28 07:37:26;;;;;;;;;;;6.40;99.90;;;;;;5033464;28;20051;-77
2022/03/28 07:39:52;;;;;;;4.25;3.10;;;6.50;99.90;;;;;;5053288;28;19917;-75
2022/03/28 07:42:18;;;;;;;5.55;3.80;;;6.60;99.90;;;;;;5052833;28;20049;-76
2022/03/28 07:44:44;;;;;;;3.28;2.88;;;6.70;99.90;;;;;;5053621;28;20474;-76
2022/03/28 07:47:11;;;;;;;7.72;4.38;;;6.70;99.90;;;;;;5052391;28;20040;-75
2022/03/28 07:49:38;;;;;;;5.95;3.30;;;6.80;99.90;;;;;;5054916;28;20072;-78
2022/03/28 07:52:08;;;;;;;5.38;3.70;;;6.80;99.90;;;;;;5052262;28;20107;-79
2022/03/28 07:54:37;;;;;;;4.70;1.90;;;6.90;99.90;;;;;;5053289;28;20055;-77
2022/03/28 07:57:03;;;;;;;3.45;3.13;;;6.90;99.90;;;;;;5058560;28;20049;-80
2022/03/28 07:59:29;;;;;;;4.07;3.45;;;6.90;99.90;;;;;;5052163;28;20128;-79
2022/03/28 08:01:55;;;;;;;3.90;2.83;;;6.90;99.90;;;;;;5052645;28;20045;-76
2022/03/28 08:04:21;;;;;;;9.00;3.55;;;6.90;99.90;;;;;;5035625;28;20043;-77
2022/03/28 08:06:47;;;;;;;3.08;1.88;;;6.90;99.90;;;;;;5052315;28;20048;-80
2022/03/28 08:09:12;;;;;;;5.60;3.33;;;6.90;99.90;;;;;;5014520;28;20056;-78
2022/03/28 08:11:38;;;;;;;6.75;3.15;;;7.00;99.90;;;;;;5052740;28;20076;-78
2022/03/28 08:14:04;;;;;;;4.47;2.47;;;7.00;99.90;;;;;;5057531;28;20401;-77
2022/03/28 08:16:30;;;;;;;;;;;7.10;99.90;;;;;;5035607;28;20090;-78
2022/03/28 08:18:56;;;;;;;5.65;3.15;;;7.10;99.90;;;;;;5057546;28;19970;-78
2022/03/28 08:21:22;;;;;;;3.22;2.90;;;7.00;99.90;;;;;;5035438;28;20102;-76
2022/03/28 08:23:48;;;;;;;3.22;2.63;;;7.00;99.90;;;;;;5052241;28;20033;-75
2022/03/28 08:26:13;;;;;;;7.38;3.72;;;7.00;99.90;;;;;;5036540;28;20041;-79
2022/03/28 08:28:39;;;;;;;5.93;3.97;;;7.00;99.90;;;;;;5053503;28;20068;-78
2022/03/28 08:31:06;;;;;;;6.32;3.05;;;7.10;99.90;;;;;;5053248;28;20052;-78
2022/03/28 08:33:32;;;;;;;6.65;3.70;;;7.20;99.90;;;;;;5022008;28;20051;-77
2022/03/28 08:35:57;;;;;;;8.23;3.83;;;7.20;99.90;;;;;;5035339;28;20124;-77
2022/03/28 08:38:23;;;;;;;5.53;2.72;;;7.30;99.90;;;;;;5038995;28;20203;-79
2022/03/28 08:40:49;;;;;;;5.32;3.10;;;7.30;99.90;;;;;;5059197;28;20041;-78
2022/03/28 08:43:19;;;;;;;;;;;7.30;99.90;;;;;;5035033;28;20043;-79
2022/03/28 08:45:45;;;;;;;4.22;2.72;;;7.30;99.90;;;;;;5036678;28;19999;-75
2022/03/28 08:48:13;;;;;;;7.78;4.05;;;7.40;99.90;;;;;;5048061;28;20405;-83
2022/03/28 08:50:41;;;;;;;2.38;1.92;;;7.40;99.90;;;;;;5044110;28;20088;-77
2022/03/28 08:53:07;;;;;;;8.68;3.75;;;7.40;99.90;;;;;;5036492;28;20040;-75
2022/03/28 08:55:33;;;;;;;5.28;2.53;;;7.40;99.90;;;;;;5050868;28;20051;-74
2022/03/28 08:57:59;;;;;;;7.07;4.38;;;7.40;99.90;;;;;;5056883;28;20163;-75
2022/03/28 09:00:25;;;;;;;6.50;4.50;;;7.60;99.90;;;;;;5054378;28;20048;-76
2022/03/28 09:02:55;;;;;;;4.55;3.15;;;7.50;99.90;;;;;;5034631;28;20045;-77
2022/03/28 09:05:29;;;;;;;3.20;2.90;;;7.60;99.90;;;;;;5054281;28;20040;-79
2022/03/28 09:07:58;;;;;;;3.13;2.85;;;7.70;99.90;;;;;;5053244;28;20040;-75
2022/03/28 09:10:27;;;;;;;4.38;3.08;;;7.70;99.90;;;;;;5055896;28;20568;-79
2022/03/28 09:13:03;;;;;;;4.13;2.67;;;7.80;99.90;;;;;;5057608;28;20044;-75
2022/03/28 09:15:55;;;;;;;4.28;2.70;;;7.90;99.90;;;;;;5056852;28;20075;-74
2022/03/28 09:18:27;;;;;;;4.32;3.28;;;8.10;99.90;;;;;;5056133;28;20485;-74
2022/03/28 09:20:59;;;;;;;14.63;4.53;;;8.20;99.90;;;;;;5053894;28;20129;-76
2022/03/28 09:23:45;;;;;;;7.50;4.47;;;8.20;99.90;;;;;;5051655;28;20036;-73
2022/03/28 09:26:22;;;;;;;11.07;3.50;;;8.30;99.90;;;;;;5066247;28;20178;-73
2022/03/28 09:29:06;;;;;;;6.45;4.10;;;8.40;99.90;;;;;;5050992;28;20402;-73
2022/03/28 09:31:38;;;;;;;3.60;2.83;;;8.30;99.90;;;;;;5074920;28;20047;-77
2022/03/28 09:34:08;;;;;;;4.25;3.67;;;8.20;99.90;;;;;;5045781;28;20040;-74
2022/03/28 09:36:42;;;;;;;3.42;2.63;;;8.20;99.90;;;;;;5052551;28;20040;-77
2022/03/28 09:39:28;;;;;;;3.33;2.60;;;8.20;99.90;;;;;;5052950;28;20389;-76
2022/03/28 09:42:07;;;;;;;7.17;3.60;;;8.30;99.90;;;;;;5051967;28;20047;-75
2022/03/28 09:44:48;;;;;;;3.50;2.92;;;8.30;99.90;;;;;;5071378;28;20279;-77
2022/03/28 09:47:19;;;;;;;7.15;3.72;;;8.40;99.90;;;;;;5053734;28;20126;-77
2022/03/28 09:49:49;;;;;;;3.17;2.20;;;8.30;99.90;;;;;;5053950;28;20437;-75
2022/03/28 09:52:20;;;;;;;5.15;3.20;;;8.30;99.90;;;;;;5050310;28;20071;-77
2022/03/28 09:54:46;;;;;;;7.68;3.88;;;8.30;99.90;;;;;;5054181;28;20431;-75
2022/03/28 09:57:14;;;;;;;4.40;3.80;;;8.30;99.90;;;;;;5057997;28;20058;-76
2022/03/28 09:59:41;;;;;;;3.50;3.20;;;8.40;99.90;;;;;;5045485;28;20136;-74
2022/03/28 10:02:17;;;;;;;3.92;3.33;;;8.40;99.90;;;;;;5038281;28;20056;-78
2022/03/28 10:04:49;;;;;;;3.75;2.95;;;8.40;99.90;;;;;;5046216;28;20041;-74
2022/03/28 10:07:15;;;;;;;4.70;3.40;;;8.40;99.90;;;;;;5049349;28;20686;-73
2022/03/28 10:09:41;;;;;;;4.88;2.20;;;8.50;99.90;;;;;;5055990;28;20494;-75
2022/03/28 10:12:07;;;;;;;;;;;8.50;99.90;;;;;;5051980;28;20041;-76
2022/03/28 10:14:34;;;;;;;5.70;3.80;;;8.70;99.90;;;;;;5033577;28;19974;-78
2022/03/28 10:17:05;;;;;;;5.28;2.92;;;8.90;99.90;;;;;;5058338;28;20158;-79
2022/03/28 10:19:33;;;;;;;5.43;3.58;;;9.10;99.90;;;;;;5049724;28;20041;-75
2022/03/28 10:22:06;;;;;;;5.85;4.00;;;9.30;99.90;;;;;;5055196;28;20052;-75
2022/03/28 10:24:34;;;;;;;3.83;3.42;;;9.40;99.90;;;;;;5049988;28;20037;-77
2022/03/28 10:27:01;;;;;;;5.88;3.67;;;9.50;99.90;;;;;;5050191;28;20048;-80
2022/03/28 10:29:38;;;;;;;5.22;3.75;;;9.60;99.90;;;;;;5052371;28;20706;-79
2022/03/28 10:32:16;;;;;;;4.15;3.20;;;9.70;99.90;;;;;;5049891;28;20052;-77
2022/03/28 10:34:54;;;;;;;6.25;3.53;;;9.70;99.90;;;;;;5049791;28;20473;-73
2022/03/28 10:37:40;;;;;;;8.25;3.70;;;9.70;99.90;;;;;;5064687;28;20052;-77
2022/03/28 10:40:12;;;;;;;2.80;2.53;;;9.70;99.90;;;;;;5051894;28;20092;-74
2022/03/28 10:43:11;;;;;;;3.92;2.92;;;9.80;99.90;;;;;;5052271;28;20045;-77
2022/03/28 10:45:49;;;;;;;9.20;2.67;;;10.00;99.90;;;;;;5044115;28;20045;-78
2022/03/28 10:48:17;;;;;;;2.75;2.20;;;10.00;99.90;;;;;;5055560;28;20056;-75
2022/03/28 10:50:51;;;;;;;17.05;3.42;;;10.00;99.90;;;;;;5039870;28;20072;-76
2022/03/28 10:53:37;;;;;;;4.90;3.78;;;10.00;99.90;;;;;;5050640;28;20045;-75
2022/03/28 10:56:17;;;;;;;5.13;3.35;;;10.10;99.90;;;;;;5049566;28;20102;-78
2022/03/28 10:59:11;;;;;;;3.38;3.03;;;10.00;99.90;;;;;;5035517;28;20071;-75
2022/03/28 11:01:37;;;;;;;7.60;3.38;;;9.90;99.90;;;;;;5060328;28;20055;-77
2022/03/28 11:04:21;;;;;;;3.53;3.22;;;10.10;99.90;;;;;;5070912;28;20115;-75
2022/03/28 11:07:11;;;;;;;5.50;2.72;;;10.20;99.90;;;;;;5052364;28;20366;-78
2022/03/28 11:10:03;;;;;;;4.90;4.07;;;10.40;99.90;;;;;;5050045;28;20044;-75
2022/03/28 11:12:40;;;;;;;5.00;3.58;;;10.60;99.90;;;;;;5037840;28;20047;-77
2022/03/28 11:15:23;;;;;;;11.60;3.42;;;10.70;99.90;;;;;;5052655;28;20055;-75
2022/03/28 11:17:57;;;;;;;6.32;3.78;;;10.70;99.90;;;;;;5062269;28;20076;-77
2022/03/28 11:20:27;;;;;;;3.90;3.30;;;10.60;99.90;;;;;;5050342;28;20060;-75
2022/03/28 11:23:10;;;;;;;5.30;3.33;;;10.60;99.90;;;;;;5051446;28;20106;-73
2022/03/28 11:25:54;;;;;;;4.22;3.33;;;10.80;99.90;;;;;;5047782;28;20086;-75
2022/03/28 11:28:23;;;;;;;7.13;4.68;;;10.90;99.90;;;;;;5052600;28;20046;-73
2022/03/28 11:30:51;;;;;;;4.78;3.33;;;10.80;99.90;;;;;;5052765;28;20455;-74
2022/03/28 11:33:21;;;;;;;5.43;3.50;;;10.60;99.90;;;;;;5052062;28;20132;-78
2022/03/28 11:35:59;;;;;;;6.72;3.35;;;10.60;99.90;;;;;;5052414;28;20381;-73
2022/03/28 11:38:28;;;;;;;10.85;5.05;;;10.80;99.90;;;;;;5055478;28;20119;-74
2022/03/28 11:40:55;;;;;;;3.97;3.13;;;10.80;99.90;;;;;;5053739;28;20461;-73
2022/03/28 11:43:36;;;;;;;4.18;2.85;;;10.80;99.90;;;;;;5056302;28;20049;-76
2022/03/28 11:46:19;;;;;;;6.68;4.10;;;11.00;99.90;;;;;;5052414;28;20056;-72
2022/03/28 11:48:53;;;;;;;5.40;3.78;;;11.20;99.90;;;;;;5056448;28;20493;-78
2022/03/28 11:51:20;;;;;;;5.88;3.80;;;11.70;99.90;;;;;;5055106;28;20047;-76
2022/03/28 11:53:46;;;;;;;8.30;5.13;;;11.80;99.90;;;;;;5054913;28;20048;-77
2022/03/28 11:56:21;;;;;;;;;;;12.00;99.90;;;;;;5056662;28;20037;-77
2022/03/28 11:58:48;;;;;;;15.68;9.90;;;12.10;99.90;;;;;;5055809;28;19920;-73
2022/03/28 12:01:15;;;;;;;13.27;8.90;;;12.10;99.90;;;;;;5058634;28;20639;-75
2022/03/28 12:03:49;;;;;;;13.30;8.68;;;11.90;99.90;;;;;;5052462;28;20407;-73
2022/03/28 12:06:36;;;;;;;13.48;8.70;;;11.70;99.90;;;;;;5059843;28;20051;-76
2022/03/28 12:09:05;;;;;;;16.77;8.55;;;11.40;99.90;;;;;;5058273;28;20044;-76
2022/03/28 12:11:34;;;;;;;11.13;7.10;;;11.80;99.90;;;;;;5055397;28;20053;-73
2022/03/28 12:14:00;;;;;;;13.00;8.07;;;11.80;99.90;;;;;;5055692;28;20502;-74
2022/03/28 12:16:25;;;;;;;12.80;7.65;;;11.90;99.90;;;;;;5053278;28;20127;-73
2022/03/28 12:18:53;;;;;;;12.93;8.20;;;11.90;99.90;;;;;;5055260;28;20072;-74
2022/03/28 12:21:20;;;;;;;15.13;8.77;;;12.00;99.90;;;;;;5055845;28;20044;-73
2022/03/28 12:23:47;;;;;;;12.15;8.32;;;12.10;99.90;;;;;;5059640;28;20123;-76
2022/03/28 12:26:12;;;;;;;13.52;8.25;;;12.40;99.90;;;;;;5055691;28;20399;-77
2022/03/28 12:28:43;;;;;;;12.88;8.55;;;12.30;99.90;;;;;;5049959;28;20079;-73
2022/03/28 12:31:09;;;;;;;10.20;7.60;;;12.30;99.90;;;;;;5024160;28;20048;-73
2022/03/28 12:33:38;;;;;;;;;;;12.10;99.90;;;;;;5060379;28;20136;-76
2022/03/28 12:36:11;;;;;;;13.48;6.70;;;12.30;99.90;;;;;;5056904;28;19924;-74
2022/03/28 12:38:43;;;;;;;10.98;7.15;;;12.40;99.90;;;;;;5053890;28;20056;-74
2022/03/28 12:41:16;;;;;;;12.07;7.07;;;12.20;99.90;;;;;;5055448;28;20052;-74
2022/03/28 12:43:48;;;;;;;10.52;7.18;;;12.20;99.90;;;;;;5054627;28;20524;-73
2022/03/28 12:46:16;;;;;;;12.20;7.63;;;12.20;99.90;;;;;;5055177;28;20083;-76
2022/03/28 12:48:51;;;;;;;12.02;7.18;;;12.10;99.90;;;;;;5064800;28;20501;-76
2022/03/28 12:51:24;;;;;;;13.30;9.88;;;12.10;99.90;;;;;;5054480;28;20051;-74
2022/03/28 12:53:51;;;;;;;12.20;7.55;;;12.00;99.90;;;;;;5051375;28;20123;-74
2022/03/28 12:56:20;;;;;;;12.50;6.70;;;11.90;99.90;;;;;;5057699;28;20124;-71
2022/03/28 12:59:04;;;;;;;12.80;7.30;;;11.90;99.90;;;;;;5037875;28;20044;-77
2022/03/28 13:01:32;;;;;;;10.40;7.22;;;11.90;99.90;;;;;;5050041;28;20106;-76
2022/03/28 13:04:20;;;;;;;15.55;7.70;;;11.70;99.90;;;;;;5054390;28;20041;-74
2022/03/28 13:07:06;;;;;;;13.15;7.30;;;11.70;99.90;;;;;;5052816;28;20119;-75